sensor_id;sensor_type;location;lat;lon;timestamp;temperature;humidity
40638;DHT22;26336;44.696;10.622;2024-03-02T00:01:44;11.20;99.90
40638;DHT22;26336;44.696;10.622;2024-03-02T00:04:47;11.20;99.90
40638;DHT22;26336;44.696;10.622;2024-03-02T00:07:57;11.20;99.90
40638;DHT22;26336;44.696;10.622;2024-03-02T00:11:01;11.30;99.90
40638;DHT22;26336;44.696;10.622;2024-03-02T00:14:08;11.30;99.90
40638;DHT22;26336;44.696;10.622;2024-03-02T00:17:21;11.30;99.90
40638;DHT22;26336;44.696;10.622;2024-03-02T00:20:28;11.30;99.90
40638;DHT22;26336;44.696;10.622;2024-03-02T00:23:33;11.30;99.90
40638;DHT22;26336;44.696;10.622;2024-03-02T00:26:38;11.30;99.90
40638;DHT22;26336;44.696;10.622;2024-03-02T00:29:42;11.30;99.90
40638;DHT22;26336;44.696;10.622;2024-03-02T00:32:46;11.30;99.90
40638;DHT22;26336;44.696;10.622;2024-03-02T00:35:50;11.30;99.90
40638;DHT22;26336;44.696;10.622;2024-03-02T00:38:55;11.20;99.90
40638;DHT22;26336;44.696;10.622;2024-03-02T00:41:59;11.20;99.90
40638;DHT22;26336;44.696;10.622;2024-03-02T00:45:07;11.20;99.90
40638;DHT22;26336;44.696;10.622;2024-03-02T00:48:15;11.20;99.90
40638;DHT22;26336;44.696;10.622;2024-03-02T00:51:23;11.20;99.90
40638;DHT22;26336;44.696;10.622;2024-03-02T00:54:28;11.10;99.90
40638;DHT22;26336;44.696;10.622;2024-03-02T00:57:34;11.20;99.90
40638;DHT22;26336;44.696;10.622;2024-03-02T01:00:41;11.10;99.90
40638;DHT22;26336;44.696;10.622;2024-03-02T01:03:45;11.10;99.90
40638;DHT22;26336;44.696;10.622;2024-03-02T01:06:49;11.20;99.90
40638;DHT22;26336;44.696;10.622;2024-03-02T01:09:52;11.10;99.90
40638;DHT22;26336;44.696;10.622;2024-03-02T01:12:57;11.10;99.90
40638;DHT22;26336;44.696;10.622;2024-03-02T01:16:01;11.20;99.90
40638;DHT22;26336;44.696;10.622;2024-03-02T01:19:05;11.10;99.90
40638;DHT22;26336;44.696;10.622;2024-03-02T01:22:09;11.10;99.90
40638;DHT22;26336;44.696;10.622;2024-03-02T01:25:13;11.00;99.90
40638;DHT22;26336;44.696;10.622;2024-03-02T01:28:17;11.10;99.90
40638;DHT22;26336;44.696;10.622;2024-03-02T01:31:22;11.00;99.90
40638;DHT22;26336;44.696;10.622;2024-03-02T01:34:26;11.10;99.90
40638;DHT22;26336;44.696;10.622;2024-03-02T01:37:30;11.10;99.90
40638;DHT22;26336;44.696;10.622;2024-03-02T01:40:35;11.10;99.90
40638;DHT22;26336;44.696;10.622;2024-03-02T01:43:39;11.10;99.90
40638;DHT22;26336;44.696;10.622;2024-03-02T01:46:43;11.10;99.90
40638;DHT22;26336;44.696;10.622;2024-03-02T01:49:47;11.10;99.90
40638;DHT22;26336;44.696;10.622;2024-03-02T01:52:51;11.10;99.90
40638;DHT22;26336;44.696;10.622;2024-03-02T01:55:55;11.00;99.90
40638;DHT22;26336;44.696;10.622;2024-03-02T01:59:02;11.10;99.90
40638;DHT22;26336;44.696;10.622;2024-03-02T02:02:07;11.10;99.90
40638;DHT22;26336;44.696;10.622;2024-03-02T02:05:11;11.00;99.90
40638;DHT22;26336;44.696;10.622;2024-03-02T02:08:15;11.10;99.90
40638;DHT22;26336;44.696;10.622;2024-03-02T02:11:19;11.00;99.90
40638;DHT22;26336;44.696;10.622;2024-03-02T02:14:23;11.00;99.90
40638;DHT22;26336;44.696;10.622;2024-03-02T02:17:27;11.00;99.90
40638;DHT22;26336;44.696;10.622;2024-03-02T02:20:31;10.90;99.90
40638;DHT22;26336;44.696;10.622;2024-03-02T02:23:35;10.90;99.90
40638;DHT22;26336;44.696;10.622;2024-03-02T02:26:39;10.90;99.90
40638;DHT22;26336;44.696;10.622;2024-03-02T02:29:43;10.90;99.90
40638;DHT22;26336;44.696;10.622;2024-03-02T02:32:47;11.00;99.90
40638;DHT22;26336;44.696;10.622;2024-03-02T02:35:51;10.90;99.90
40638;DHT22;26336;44.696;10.622;2024-03-02T02:38:55;10.90;99.90
40638;DHT22;26336;44.696;10.622;2024-03-02T02:41:59;10.90;99.90
40638;DHT22;26336;44.696;10.622;2024-03-02T02:45:06;11.00;99.90
40638;DHT22;26336;44.696;10.622;2024-03-02T02:48:10;10.90;99.90
40638;DHT22;26336;44.696;10.622;2024-03-02T02:51:14;10.90;99.90
40638;DHT22;26336;44.696;10.622;2024-03-02T02:54:18;10.80;99.90
40638;DHT22;26336;44.696;10.622;2024-03-02T02:57:22;10.80;99.90
40638;DHT22;26336;44.696;10.622;2024-03-02T03:00:26;10.90;99.90
40638;DHT22;26336;44.696;10.622;2024-03-02T03:03:30;10.90;99.90
40638;DHT22;26336;44.696;10.622;2024-03-02T03:06:33;10.80;99.90
40638;DHT22;26336;44.696;10.622;2024-03-02T03:09:37;10.80;99.90
40638;DHT22;26336;44.696;10.622;2024-03-02T03:12:43;10.80;99.90
40638;DHT22;26336;44.696;10.622;2024-03-02T03:15:46;10.80;99.90
40638;DHT22;26336;44.696;10.622;2024-03-02T03:18:50;10.80;99.90
40638;DHT22;26336;44.696;10.622;2024-03-02T03:21:55;10.90;99.90
40638;DHT22;26336;44.696;10.622;2024-03-02T03:24:58;10.80;99.90
40638;DHT22;26336;44.696;10.622;2024-03-02T03:28:03;10.80;99.90
40638;DHT22;26336;44.696;10.622;2024-03-02T03:31:07;10.70;99.90
40638;DHT22;26336;44.696;10.622;2024-03-02T03:34:11;10.70;99.90
40638;DHT22;26336;44.696;10.622;2024-03-02T03:37:19;10.70;99.90
40638;DHT22;26336;44.696;10.622;2024-03-02T03:40:23;10.70;99.90
40638;DHT22;26336;44.696;10.622;2024-03-02T03:43:27;10.70;99.90
40638;DHT22;26336;44.696;10.622;2024-03-02T03:46:31;10.70;99.90
40638;DHT22;26336;44.696;10.622;2024-03-02T03:49:35;10.70;99.90
40638;DHT22;26336;44.696;10.622;2024-03-02T03:52:38;10.70;99.90
40638;DHT22;26336;44.696;10.622;2024-03-02T03:55:43;10.60;99.90
40638;DHT22;26336;44.696;10.622;2024-03-02T03:58:47;10.70;99.90
40638;DHT22;26336;44.696;10.622;2024-03-02T04:01:51;10.60;99.90
40638;DHT22;26336;44.696;10.622;2024-03-02T04:04:55;10.60;99.90
40638;DHT22;26336;44.696;10.622;2024-03-02T04:07:59;10.60;99.90
40638;DHT22;26336;44.696;10.622;2024-03-02T04:11:04;10.70;99.90
40638;DHT22;26336;44.696;10.622;2024-03-02T04:14:08;10.70;99.90
40638;DHT22;26336;44.696;10.622;2024-03-02T04:17:12;10.70;99.90
40638;DHT22;26336;44.696;10.622;2024-03-02T04:20:17;10.70;99.90
40638;DHT22;26336;44.696;10.622;2024-03-02T04:23:20;10.70;99.90
40638;DHT22;26336;44.696;10.622;2024-03-02T04:26:25;10.70;99.90
40638;DHT22;26336;44.696;10.622;2024-03-02T04:29:29;10.70;99.90
40638;DHT22;26336;44.696;10.622;2024-03-02T04:32:33;10.60;99.90
40638;DHT22;26336;44.696;10.622;2024-03-02T04:35:37;10.60;99.90
40638;DHT22;26336;44.696;10.622;2024-03-02T04:38:41;10.60;99.90
40638;DHT22;26336;44.696;10.622;2024-03-02T04:41:45;10.60;99.90
40638;DHT22;26336;44.696;10.622;2024-03-02T04:44:49;10.60;99.90
40638;DHT22;26336;44.696;10.622;2024-03-02T04:47:53;10.60;99.90
40638;DHT22;26336;44.696;10.622;2024-03-02T04:50:57;10.60;99.90
40638;DHT22;26336;44.696;10.622;2024-03-02T04:54:01;10.60;99.90
40638;DHT22;26336;44.696;10.622;2024-03-02T04:57:05;10.70;99.90
40638;DHT22;26336;44.696;10.622;2024-03-02T05:00:09;10.60;99.90
40638;DHT22;26336;44.696;10.622;2024-03-02T05:03:13;10.60;99.90
40638;DHT22;26336;44.696;10.622;2024-03-02T05:06:18;10.60;99.90
40638;DHT22;26336;44.696;10.622;2024-03-02T05:09:22;10.60;99.90
40638;DHT22;26336;44.696;10.622;2024-03-02T05:12:26;10.60;99.90
40638;DHT22;26336;44.696;10.622;2024-03-02T05:15:59;10.50;99.90
40638;DHT22;26336;44.696;10.622;2024-03-02T05:19:03;10.50;99.90
40638;DHT22;26336;44.696;10.622;2024-03-02T05:22:07;10.50;99.90
40638;DHT22;26336;44.696;10.622;2024-03-02T05:25:11;10.50;99.90
40638;DHT22;26336;44.696;10.622;2024-03-02T05:28:15;10.50;99.90
40638;DHT22;26336;44.696;10.622;2024-03-02T05:31:18;10.50;99.90
40638;DHT22;26336;44.696;10.622;2024-03-02T05:34:22;10.50;99.90
40638;DHT22;26336;44.696;10.622;2024-03-02T05:37:27;10.50;99.90
40638;DHT22;26336;44.696;10.622;2024-03-02T05:40:30;10.50;99.90
40638;DHT22;26336;44.696;10.622;2024-03-02T05:43:34;10.40;99.90
40638;DHT22;26336;44.696;10.622;2024-03-02T05:46:38;10.50;99.90
40638;DHT22;26336;44.696;10.622;2024-03-02T05:49:42;10.50;99.90
40638;DHT22;26336;44.696;10.622;2024-03-02T05:52:47;10.40;99.90
40638;DHT22;26336;44.696;10.622;2024-03-02T05:55:51;10.40;99.90
40638;DHT22;26336;44.696;10.622;2024-03-02T05:58:59;10.40;99.90
40638;DHT22;26336;44.696;10.622;2024-03-02T06:02:23;10.40;99.90
40638;DHT22;26336;44.696;10.622;2024-03-02T06:05:27;10.40;99.90
40638;DHT22;26336;44.696;10.622;2024-03-02T06:08:31;10.40;99.90
40638;DHT22;26336;44.696;10.622;2024-03-02T06:11:39;10.40;99.90
40638;DHT22;26336;44.696;10.622;2024-03-02T06:14:43;10.40;99.90
40638;DHT22;26336;44.696;10.622;2024-03-02T06:17:47;10.50;99.90
40638;DHT22;26336;44.696;10.622;2024-03-02T06:20:51;10.40;99.90
40638;DHT22;26336;44.696;10.622;2024-03-02T06:23:55;10.50;99.90
40638;DHT22;26336;44.696;10.622;2024-03-02T06:27:00;10.40;99.90
40638;DHT22;26336;44.696;10.622;2024-03-02T06:30:04;10.40;99.90
40638;DHT22;26336;44.696;10.622;2024-03-02T06:33:09;10.50;99.90
40638;DHT22;26336;44.696;10.622;2024-03-02T06:36:13;10.40;99.90
40638;DHT22;26336;44.696;10.622;2024-03-02T06:39:19;10.40;99.90
40638;DHT22;26336;44.696;10.622;2024-03-02T06:42:23;10.40;99.90
40638;DHT22;26336;44.696;10.622;2024-03-02T06:45:28;10.40;99.90
40638;DHT22;26336;44.696;10.622;2024-03-02T06:48:34;10.40;99.90
40638;DHT22;26336;44.696;10.622;2024-03-02T06:51:38;10.40;99.90
40638;DHT22;26336;44.696;10.622;2024-03-02T06:54:41;10.40;99.90
40638;DHT22;26336;44.696;10.622;2024-03-02T06:57:45;10.40;99.90
40638;DHT22;26336;44.696;10.622;2024-03-02T07:00:49;10.50;99.90
40638;DHT22;26336;44.696;10.622;2024-03-02T07:03:53;10.50;99.90
40638;DHT22;26336;44.696;10.622;2024-03-02T07:06:57;10.50;99.90
40638;DHT22;26336;44.696;10.622;2024-03-02T07:10:01;10.50;99.90
40638;DHT22;26336;44.696;10.622;2024-03-02T07:13:05;10.50;99.90
40638;DHT22;26336;44.696;10.622;2024-03-02T07:16:09;10.50;99.90
40638;DHT22;26336;44.696;10.622;2024-03-02T07:19:31;10.50;99.90
40638;DHT22;26336;44.696;10.622;2024-03-02T07:22:35;10.50;99.90
40638;DHT22;26336;44.696;10.622;2024-03-02T07:25:41;10.60;99.90
40638;DHT22;26336;44.696;10.622;2024-03-02T07:28:48;10.50;99.90
40638;DHT22;26336;44.696;10.622;2024-03-02T07:31:53;10.50;99.90
40638;DHT22;26336;44.696;10.622;2024-03-02T07:34:57;10.50;99.90
40638;DHT22;26336;44.696;10.622;2024-03-02T07:38:01;10.50;99.90
40638;DHT22;26336;44.696;10.622;2024-03-02T07:41:07;10.50;99.90
40638;DHT22;26336;44.696;10.622;2024-03-02T07:44:11;10.50;99.90
40638;DHT22;26336;44.696;10.622;2024-03-02T07:47:18;10.50;99.90
40638;DHT22;26336;44.696;10.622;2024-03-02T07:50:22;10.50;99.90
40638;DHT22;26336;44.696;10.622;2024-03-02T07:53:26;10.60;99.90
40638;DHT22;26336;44.696;10.622;2024-03-02T07:56:31;10.50;99.90
40638;DHT22;26336;44.696;10.622;2024-03-02T07:59:35;10.60;99.90
40638;DHT22;26336;44.696;10.622;2024-03-02T08:02:40;10.60;99.90
40638;DHT22;26336;44.696;10.622;2024-03-02T08:05:44;10.60;99.90
40638;DHT22;26336;44.696;10.622;2024-03-02T08:08:48;10.60;99.90
40638;DHT22;26336;44.696;10.622;2024-03-02T08:11:52;10.70;99.90
40638;DHT22;26336;44.696;10.622;2024-03-02T08:14:56;10.70;99.90
40638;DHT22;26336;44.696;10.622;2024-03-02T08:18:00;10.70;99.90
40638;DHT22;26336;44.696;10.622;2024-03-02T08:21:04;10.70;99.90
40638;DHT22;26336;44.696;10.622;2024-03-02T08:24:08;10.70;99.90
40638;DHT22;26336;44.696;10.622;2024-03-02T08:27:12;10.70;99.90
40638;DHT22;26336;44.696;10.622;2024-03-02T08:30:19;10.70;99.90
40638;DHT22;26336;44.696;10.622;2024-03-02T08:33:23;10.70;99.90
40638;DHT22;26336;44.696;10.622;2024-03-02T08:36:27;10.70;99.90
40638;DHT22;26336;44.696;10.622;2024-03-02T08:39:31;10.70;99.90
40638;DHT22;26336;44.696;10.622;2024-03-02T08:42:35;10.70;99.90
40638;DHT22;26336;44.696;10.622;2024-03-02T08:45:39;10.70;99.90
40638;DHT22;26336;44.696;10.622;2024-03-02T08:48:43;10.70;99.90
40638;DHT22;26336;44.696;10.622;2024-03-02T08:51:47;10.70;99.90
40638;DHT22;26336;44.696;10.622;2024-03-02T08:54:58;10.80;99.90
40638;DHT22;26336;44.696;10.622;2024-03-02T08:58:02;10.80;99.90
40638;DHT22;26336;44.696;10.622;2024-03-02T09:01:06;10.80;99.90
40638;DHT22;26336;44.696;10.622;2024-03-02T09:04:11;10.80;99.90
40638;DHT22;26336;44.696;10.622;2024-03-02T09:07:15;10.80;99.90
40638;DHT22;26336;44.696;10.622;2024-03-02T09:10:19;10.80;99.90
40638;DHT22;26336;44.696;10.622;2024-03-02T09:13:23;10.90;99.90
40638;DHT22;26336;44.696;10.622;2024-03-02T09:16:26;10.90;99.90
40638;DHT22;26336;44.696;10.622;2024-03-02T09:19:53;10.90;99.90
40638;DHT22;26336;44.696;10.622;2024-03-02T09:22:57;10.90;99.90
40638;DHT22;26336;44.696;10.622;2024-03-02T09:26:00;11.00;99.90
40638;DHT22;26336;44.696;10.622;2024-03-02T09:29:04;11.00;99.90
40638;DHT22;26336;44.696;10.622;2024-03-02T09:32:12;11.00;99.90
40638;DHT22;26336;44.696;10.622;2024-03-02T09:35:17;11.10;99.90
40638;DHT22;26336;44.696;10.622;2024-03-02T09:38:21;11.10;99.90
40638;DHT22;26336;44.696;10.622;2024-03-02T09:41:26;11.10;99.90
40638;DHT22;26336;44.696;10.622;2024-03-02T09:44:30;11.20;99.90
40638;DHT22;26336;44.696;10.622;2024-03-02T09:47:33;11.20;99.90
40638;DHT22;26336;44.696;10.622;2024-03-02T09:50:37;11.20;99.90
40638;DHT22;26336;44.696;10.622;2024-03-02T09:53:41;11.20;99.90
40638;DHT22;26336;44.696;10.622;2024-03-02T09:56:46;11.30;99.90
40638;DHT22;26336;44.696;10.622;2024-03-02T09:59:50;11.30;99.90
40638;DHT22;26336;44.696;10.622;2024-03-02T10:02:54;11.30;99.90
40638;DHT22;26336;44.696;10.622;2024-03-02T10:06:18;11.40;99.90
40638;DHT22;26336;44.696;10.622;2024-03-02T10:09:27;11.40;99.90
40638;DHT22;26336;44.696;10.622;2024-03-02T10:12:32;11.30;99.90
40638;DHT22;26336;44.696;10.622;2024-03-02T10:15:37;11.40;99.90
40638;DHT22;26336;44.696;10.622;2024-03-02T10:18:41;11.40;99.90
40638;DHT22;26336;44.696;10.622;2024-03-02T10:21:46;11.50;99.90
40638;DHT22;26336;44.696;10.622;2024-03-02T10:24:51;11.50;99.90
40638;DHT22;26336;44.696;10.622;2024-03-02T10:28:00;11.60;99.90
40638;DHT22;26336;44.696;10.622;2024-03-02T10:31:05;11.70;99.90
40638;DHT22;26336;44.696;10.622;2024-03-02T10:34:10;11.70;99.90
40638;DHT22;26336;44.696;10.622;2024-03-02T10:37:15;11.70;99.90
40638;DHT22;26336;44.696;10.622;2024-03-02T10:40:23;11.80;99.90
40638;DHT22;26336;44.696;10.622;2024-03-02T10:43:27;11.80;99.90
40638;DHT22;26336;44.696;10.622;2024-03-02T10:46:33;11.90;99.90
40638;DHT22;26336;44.696;10.622;2024-03-02T10:49:38;11.90;99.90
40638;DHT22;26336;44.696;10.622;2024-03-02T10:52:45;12.00;99.90
40638;DHT22;26336;44.696;10.622;2024-03-02T10:55:55;12.10;99.90
40638;DHT22;26336;44.696;10.622;2024-03-02T10:59:24;12.20;99.90
40638;DHT22;26336;44.696;10.622;2024-03-02T11:02:31;12.10;99.90
40638;DHT22;26336;44.696;10.622;2024-03-02T11:05:44;12.20;99.90
40638;DHT22;26336;44.696;10.622;2024-03-02T11:08:49;12.10;99.90
40638;DHT22;26336;44.696;10.622;2024-03-02T11:12:22;12.10;99.90
40638;DHT22;26336;44.696;10.622;2024-03-02T11:15:27;12.10;99.90
40638;DHT22;26336;44.696;10.622;2024-03-02T11:18:32;12.10;99.90
40638;DHT22;26336;44.696;10.622;2024-03-02T11:21:37;12.20;99.90
40638;DHT22;26336;44.696;10.622;2024-03-02T11:24:48;12.20;99.90
40638;DHT22;26336;44.696;10.622;2024-03-02T11:30:59;12.20;99.90
40638;DHT22;26336;44.696;10.622;2024-03-02T11:34:35;12.20;99.90
40638;DHT22;26336;44.696;10.622;2024-03-02T11:37:39;12.20;99.90
40638;DHT22;26336;44.696;10.622;2024-03-02T11:40:44;12.20;99.90
40638;DHT22;26336;44.696;10.622;2024-03-02T11:43:50;12.20;99.90
40638;DHT22;26336;44.696;10.622;2024-03-02T11:47:01;12.10;99.90
40638;DHT22;26336;44.696;10.622;2024-03-02T11:50:06;12.20;99.90
40638;DHT22;26336;44.696;10.622;2024-03-02T11:53:14;12.20;99.90
40638;DHT22;26336;44.696;10.622;2024-03-02T11:56:19;12.20;99.90
40638;DHT22;26336;44.696;10.622;2024-03-02T11:59:24;12.20;99.90
40638;DHT22;26336;44.696;10.622;2024-03-02T12:02:30;12.20;99.90
40638;DHT22;26336;44.696;10.622;2024-03-02T12:05:35;12.20;99.90
40638;DHT22;26336;44.696;10.622;2024-03-02T12:08:40;12.30;99.90
40638;DHT22;26336;44.696;10.622;2024-03-02T12:11:44;12.30;99.90
40638;DHT22;26336;44.696;10.622;2024-03-02T12:14:52;12.40;99.90
40638;DHT22;26336;44.696;10.622;2024-03-02T12:18:01;12.40;99.90
40638;DHT22;26336;44.696;10.622;2024-03-02T12:21:05;12.40;99.90
40638;DHT22;26336;44.696;10.622;2024-03-02T12:24:12;12.40;99.90
40638;DHT22;26336;44.696;10.622;2024-03-02T12:27:17;12.40;99.90
40638;DHT22;26336;44.696;10.622;2024-03-02T12:30:27;12.50;99.90
40638;DHT22;26336;44.696;10.622;2024-03-02T12:33:32;12.50;99.90
40638;DHT22;26336;44.696;10.622;2024-03-02T12:36:38;12.50;99.90
40638;DHT22;26336;44.696;10.622;2024-03-02T12:39:45;12.60;99.90
40638;DHT22;26336;44.696;10.622;2024-03-02T12:42:50;12.60;99.90
40638;DHT22;26336;44.696;10.622;2024-03-02T12:45:54;12.70;99.90
40638;DHT22;26336;44.696;10.622;2024-03-02T12:49:10;12.70;99.90
40638;DHT22;26336;44.696;10.622;2024-03-02T12:52:14;12.80;99.90
40638;DHT22;26336;44.696;10.622;2024-03-02T12:55:20;12.80;99.90
40638;DHT22;26336;44.696;10.622;2024-03-02T12:58:24;12.70;99.90
40638;DHT22;26336;44.696;10.622;2024-03-02T13:01:29;12.70;99.90
40638;DHT22;26336;44.696;10.622;2024-03-02T13:04:34;12.80;99.90
40638;DHT22;26336;44.696;10.622;2024-03-02T13:07:38;12.80;99.90
40638;DHT22;26336;44.696;10.622;2024-03-02T13:10:48;12.80;99.90
40638;DHT22;26336;44.696;10.622;2024-03-02T13:13:52;12.90;99.90
40638;DHT22;26336;44.696;10.622;2024-03-02T13:16:57;12.90;99.90
40638;DHT22;26336;44.696;10.622;2024-03-02T13:20:01;12.80;99.90
40638;DHT22;26336;44.696;10.622;2024-03-02T13:23:10;12.80;99.90
40638;DHT22;26336;44.696;10.622;2024-03-02T13:26:14;12.80;99.90
40638;DHT22;26336;44.696;10.622;2024-03-02T13:29:18;12.80;99.90
40638;DHT22;26336;44.696;10.622;2024-03-02T13:32:24;12.80;99.90
40638;DHT22;26336;44.696;10.622;2024-03-02T13:35:29;12.80;99.90
40638;DHT22;26336;44.696;10.622;2024-03-02T13:38:33;12.90;99.90
40638;DHT22;26336;44.696;10.622;2024-03-02T13:41:37;12.90;99.90
40638;DHT22;26336;44.696;10.622;2024-03-02T13:44:45;13.00;99.90
40638;DHT22;26336;44.696;10.622;2024-03-02T13:47:51;13.10;99.90
40638;DHT22;26336;44.696;10.622;2024-03-02T13:50:56;13.20;99.90
40638;DHT22;26336;44.696;10.622;2024-03-02T13:54:00;13.30;99.90
40638;DHT22;26336;44.696;10.622;2024-03-02T13:57:05;13.30;99.90
40638;DHT22;26336;44.696;10.622;2024-03-02T14:00:10;13.20;99.90
40638;DHT22;26336;44.696;10.622;2024-03-02T14:03:15;13.10;99.90
40638;DHT22;26336;44.696;10.622;2024-03-02T14:06:19;13.10;99.90
40638;DHT22;26336;44.696;10.622;2024-03-02T14:09:23;13.10;99.90
40638;DHT22;26336;44.696;10.622;2024-03-02T14:12:28;13.10;99.90
40638;DHT22;26336;44.696;10.622;2024-03-02T14:15:32;13.00;99.90
40638;DHT22;26336;44.696;10.622;2024-03-02T14:18:36;13.00;99.90
40638;DHT22;26336;44.696;10.622;2024-03-02T14:21:40;13.00;99.90
40638;DHT22;26336;44.696;10.622;2024-03-02T14:24:44;13.00;99.90
40638;DHT22;26336;44.696;10.622;2024-03-02T14:27:48;13.00;99.90
40638;DHT22;26336;44.696;10.622;2024-03-02T14:30:52;13.10;99.90
40638;DHT22;26336;44.696;10.622;2024-03-02T14:34:00;13.20;99.90
40638;DHT22;26336;44.696;10.622;2024-03-02T14:37:05;13.20;99.90
40638;DHT22;26336;44.696;10.622;2024-03-02T14:40:09;13.30;99.90
40638;DHT22;26336;44.696;10.622;2024-03-02T14:43:14;13.30;99.90
40638;DHT22;26336;44.696;10.622;2024-03-02T14:46:21;13.30;99.90
40638;DHT22;26336;44.696;10.622;2024-03-02T14:49:25;13.40;99.90
40638;DHT22;26336;44.696;10.622;2024-03-02T14:52:29;13.30;99.90
40638;DHT22;26336;44.696;10.622;2024-03-02T14:55:33;13.30;99.90
40638;DHT22;26336;44.696;10.622;2024-03-02T14:58:38;13.30;99.90
40638;DHT22;26336;44.696;10.622;2024-03-02T15:01:42;13.30;99.90
40638;DHT22;26336;44.696;10.622;2024-03-02T15:04:48;13.30;99.90
40638;DHT22;26336;44.696;10.622;2024-03-02T15:07:55;13.30;99.90
40638;DHT22;26336;44.696;10.622;2024-03-02T15:10:59;13.30;99.90
40638;DHT22;26336;44.696;10.622;2024-03-02T15:14:04;13.30;99.90
40638;DHT22;26336;44.696;10.622;2024-03-02T15:17:08;13.30;99.90
40638;DHT22;26336;44.696;10.622;2024-03-02T15:20:12;13.30;99.90
40638;DHT22;26336;44.696;10.622;2024-03-02T15:23:16;13.30;99.90
40638;DHT22;26336;44.696;10.622;2024-03-02T15:26:20;13.30;99.90
40638;DHT22;26336;44.696;10.622;2024-03-02T15:29:24;13.30;99.90
40638;DHT22;26336;44.696;10.622;2024-03-02T15:32:33;13.30;99.90
40638;DHT22;26336;44.696;10.622;2024-03-02T15:35:42;13.30;99.90
40638;DHT22;26336;44.696;10.622;2024-03-02T15:38:46;13.30;99.90
40638;DHT22;26336;44.696;10.622;2024-03-02T15:41:51;13.40;99.90
40638;DHT22;26336;44.696;10.622;2024-03-02T15:44:55;13.40;99.90
40638;DHT22;26336;44.696;10.622;2024-03-02T15:47:59;13.30;99.90
40638;DHT22;26336;44.696;10.622;2024-03-02T15:51:03;13.40;99.90
40638;DHT22;26336;44.696;10.622;2024-03-02T15:54:08;13.30;99.90
40638;DHT22;26336;44.696;10.622;2024-03-02T15:57:12;13.30;99.90
40638;DHT22;26336;44.696;10.622;2024-03-02T16:00:16;13.20;99.90
40638;DHT22;26336;44.696;10.622;2024-03-02T16:03:20;13.20;99.90
40638;DHT22;26336;44.696;10.622;2024-03-02T16:06:24;13.20;99.90
40638;DHT22;26336;44.696;10.622;2024-03-02T16:09:28;13.10;99.90
40638;DHT22;26336;44.696;10.622;2024-03-02T16:12:32;13.10;99.90
40638;DHT22;26336;44.696;10.622;2024-03-02T16:15:35;13.10;99.90
40638;DHT22;26336;44.696;10.622;2024-03-02T16:18:39;13.10;99.90
40638;DHT22;26336;44.696;10.622;2024-03-02T16:21:45;13.10;99.90
40638;DHT22;26336;44.696;10.622;2024-03-02T16:24:49;13.10;99.90
40638;DHT22;26336;44.696;10.622;2024-03-02T16:27:53;13.00;99.90
40638;DHT22;26336;44.696;10.622;2024-03-02T16:30:58;13.00;99.90
40638;DHT22;26336;44.696;10.622;2024-03-02T16:34:02;13.00;99.90
40638;DHT22;26336;44.696;10.622;2024-03-02T16:37:06;13.00;99.90
40638;DHT22;26336;44.696;10.622;2024-03-02T16:40:10;13.00;99.90
40638;DHT22;26336;44.696;10.622;2024-03-02T16:43:14;13.00;99.90
40638;DHT22;26336;44.696;10.622;2024-03-02T16:46:18;13.00;99.90
40638;DHT22;26336;44.696;10.622;2024-03-02T16:49:22;13.00;99.90
40638;DHT22;26336;44.696;10.622;2024-03-02T16:52:27;12.90;99.90
40638;DHT22;26336;44.696;10.622;2024-03-02T16:55:31;12.90;99.90
40638;DHT22;26336;44.696;10.622;2024-03-02T16:58:35;12.90;99.90
40638;DHT22;26336;44.696;10.622;2024-03-02T17:01:40;12.90;99.90
40638;DHT22;26336;44.696;10.622;2024-03-02T17:04:44;12.90;99.90
40638;DHT22;26336;44.696;10.622;2024-03-02T17:07:48;12.80;99.90
40638;DHT22;26336;44.696;10.622;2024-03-02T17:10:52;12.80;99.90
40638;DHT22;26336;44.696;10.622;2024-03-02T17:13:56;12.80;99.90
40638;DHT22;26336;44.696;10.622;2024-03-02T17:17:00;12.80;99.90
40638;DHT22;26336;44.696;10.622;2024-03-02T17:20:05;12.80;99.90
40638;DHT22;26336;44.696;10.622;2024-03-02T17:23:12;12.80;99.90
40638;DHT22;26336;44.696;10.622;2024-03-02T17:26:16;12.70;99.90
40638;DHT22;26336;44.696;10.622;2024-03-02T17:29:20;12.70;99.90
40638;DHT22;26336;44.696;10.622;2024-03-02T17:32:27;12.70;99.90
40638;DHT22;26336;44.696;10.622;2024-03-02T17:35:31;12.70;99.90
40638;DHT22;26336;44.696;10.622;2024-03-02T17:38:35;12.70;99.90
40638;DHT22;26336;44.696;10.622;2024-03-02T17:41:42;12.70;99.90
40638;DHT22;26336;44.696;10.622;2024-03-02T17:44:46;12.60;99.90
40638;DHT22;26336;44.696;10.622;2024-03-02T17:47:50;12.60;99.90
40638;DHT22;26336;44.696;10.622;2024-03-02T17:50:55;12.50;99.90
40638;DHT22;26336;44.696;10.622;2024-03-02T17:53:59;12.50;99.90
40638;DHT22;26336;44.696;10.622;2024-03-02T17:57:03;12.50;99.90
40638;DHT22;26336;44.696;10.622;2024-03-02T18:00:07;12.40;99.90
40638;DHT22;26336;44.696;10.622;2024-03-02T18:03:17;12.40;99.90
40638;DHT22;26336;44.696;10.622;2024-03-02T18:06:21;12.30;99.90
40638;DHT22;26336;44.696;10.622;2024-03-02T18:09:25;12.30;99.90
40638;DHT22;26336;44.696;10.622;2024-03-02T18:12:29;12.20;99.90
40638;DHT22;26336;44.696;10.622;2024-03-02T18:15:33;12.20;99.90
40638;DHT22;26336;44.696;10.622;2024-03-02T18:18:37;12.20;99.90
40638;DHT22;26336;44.696;10.622;2024-03-02T18:21:41;12.10;99.90
40638;DHT22;26336;44.696;10.622;2024-03-02T18:24:45;12.10;99.90
40638;DHT22;26336;44.696;10.622;2024-03-02T18:27:49;12.10;99.90
40638;DHT22;26336;44.696;10.622;2024-03-02T18:30:53;12.10;99.90
40638;DHT22;26336;44.696;10.622;2024-03-02T18:33:57;12.10;99.90
40638;DHT22;26336;44.696;10.622;2024-03-02T18:37:01;12.10;99.90
40638;DHT22;26336;44.696;10.622;2024-03-02T18:40:06;12.00;99.90
40638;DHT22;26336;44.696;10.622;2024-03-02T18:43:10;12.00;99.90
40638;DHT22;26336;44.696;10.622;2024-03-02T18:46:14;12.00;99.90
40638;DHT22;26336;44.696;10.622;2024-03-02T18:49:18;12.00;99.90
40638;DHT22;26336;44.696;10.622;2024-03-02T18:52:23;12.10;99.90
40638;DHT22;26336;44.696;10.622;2024-03-02T18:55:31;12.20;99.90
40638;DHT22;26336;44.696;10.622;2024-03-02T18:58:35;12.20;99.90
40638;DHT22;26336;44.696;10.622;2024-03-02T19:01:39;12.20;99.90
40638;DHT22;26336;44.696;10.622;2024-03-02T19:04:43;12.20;99.90
40638;DHT22;26336;44.696;10.622;2024-03-02T19:07:47;12.10;99.90
40638;DHT22;26336;44.696;10.622;2024-03-02T19:10:51;12.00;99.90
40638;DHT22;26336;44.696;10.622;2024-03-02T19:13:55;11.90;99.90